PDT,Max TemperatureF,Mean TemperatureF,Min TemperatureF,Max Dew PointF,MeanDew PointF,Min DewpointF,Max Humidity, Mean Humidity, Min Humidity, Max Sea Level PressureIn, Mean Sea Level PressureIn, Min Sea Level PressureIn, Max VisibilityMiles, Mean VisibilityMiles, Min VisibilityMiles, Max Wind SpeedMPH, Mean Wind SpeedMPH, Max Gust SpeedMPH,PrecipitationIn, CloudCover, Events, WindDirDegrees
2013-3-1,68,58,48,16,14,9,29,21,13,30.35,30.30,30.25,10,10,10,29,15,36,0.00,0,,66
2013-3-2,73,64,55,31,18,13,21,17,13,30.26,30.17,30.09,10,10,10,21,12,28,0.00,0,,153
2013-3-3,62,54,45,37,29,17,66,45,24,30.19,29.98,29.92,10,10,10,24,13,30,T,6,Rain,312
2013-3-4,64,54,43,40,36,30,82,57,32,30.10,30.02,29.94,10,10,9,29,13,46,0.00,3,,326
2013-3-5,61,50,39,40,37,30,89,61,32,30.07,29.99,29.92,10,5,0,33,17,41,0.00,3,Fog,185
2013-3-6,46,41,35,39,35,30,92,81,70,30.08,30.02,29.92,10,2,0,31,10,41,0.03,7,Fog-Rain,197
2013-3-7,48,41,34,36,32,27,92,71,49,29.93,29.88,29.75,10,6,0,25,15,35,0.06,6,Fog-Snow,194
2013-3-8,41,36,31,32,30,28,89,83,76,29.96,29.81,29.67,10,4,0,33,14,39,0.56,7,Fog-Snow,300
2013-3-9,45,39,33,34,29,25,82,66,49,30.22,30.08,29.96,10,6,0,35,19,40,T,5,Fog-Rain,343
2013-3-10,62,52,42,30,19,10,57,37,16,30.28,30.23,30.18,10,10,10,23,12,30,0.00,0,,32
2013-3-11,70,60,50,24,16,10,32,23,14,30.19,30.12,30.05,10,10,10,16,9,22,0.00,0,,42
2013-3-12,73,64,54,20,15,9,24,18,12,30.13,30.08,30.03,10,10,10,22,9,28,0.00,0,,58
2013-3-13,77,68,59,24,19,15,19,16,12,30.18,30.13,30.09,10,10,10,17,10,23,0.00,0,,70
2013-3-14,82,72,62,31,25,17,28,20,12,30.14,30.09,30.05,10,10,10,16,10,23,0.00,0,,36
2013-3-15,77,66,54,44,37,26,61,40,18,30.04,29.99,29.96,10,10,9,36,15,44,0.00,0,,323
2013-3-16,66,58,49,41,37,27,68,50,32,29.99,29.96,29.91,10,10,10,39,19,54,0.00,0,,346
2013-3-17,61,53,45,39,30,18,63,45,26,30.07,29.99,29.95,10,10,10,39,17,44,0.00,2,,7
2013-3-18,65,56,47,33,24,10,56,36,15,30.04,30.00,29.94,10,10,10,29,14,38,0.00,0,,1
2013-3-19,68,58,47,34,29,18,53,38,22,30.08,30.04,29.99,10,10,10,28,17,33,T,0,,346
2013-3-20,63,55,47,41,37,33,71,57,42,30.05,30.02,29.97,10,10,10,30,16,43,0.00,0,,339
2013-3-21,58,51,44,46,41,31,92,65,38,30.03,29.96,29.86,10,5,0,47,25,54,T,6,Fog,349
2013-3-22,57,48,38,37,30,22,79,56,32,29.97,29.91,29.83,10,10,10,43,19,54,0.00,2,,346
2013-3-23,68,54,40,20,10,-11,39,23,7,30.06,29.98,29.93,10,10,10,35,19,39,0.00,0,,1
2013-3-24,69,58,47,28,16,-15,35,21,6,30.02,29.96,29.92,10,10,10,31,14,38,0.00,0,,358
2013-3-25,71,62,52,34,24,17,41,29,17,29.95,29.91,29.89,10,10,10,25,10,30,0.00,0,,227
2013-3-26,69,59,48,33,28,13,50,31,11,29.90,29.88,29.86,10,10,10,20,11,24,0.00,0,,316
2013-3-27,64,56,47,43,38,34,80,58,36,30.01,29.92,29.84,10,10,9,24,10,30,0.00,2,,323
2013-3-28,68,58,47,40,37,34,76,55,34,30.04,30.00,29.96,10,10,10,23,9,30,0.00,1,,317
2013-3-29,72,63,53,36,31,28,50,36,22,30.07,30.04,30.02,10,10,10,22,11,29,0.00,0,,211
2013-3-30,71,61,50,37,30,19,54,35,15,30.05,30.02,29.98,10,10,10,30,15,37,0.00,1,,192
2013-3-31,58,52,45,46,42,29,93,68,42,30.13,30.04,29.99,10,5,0,23,10,28,0.01,7,Fog-Rain,196